createdAt,value
2023-05-19T00:04:27.277Z,12.06
2023-05-19T00:09:31.441Z,12.08
2023-05-19T00:14:39.655Z,11.52
2023-05-19T00:19:45.187Z,11.16
2023-05-19T00:24:49.115Z,11.99
2023-05-19T00:29:52.282Z,10.43
2023-05-19T00:34:56.991Z,10.87
2023-05-19T00:40:10.907Z,9.81
2023-05-19T00:45:13.761Z,11.60
2023-05-19T00:50:18.756Z,10.16
2023-05-19T00:55:23.608Z,11.07
2023-05-19T01:00:26.304Z,11.30
2023-05-19T01:05:37.006Z,8.93
2023-05-19T01:10:40.437Z,8.56
2023-05-19T01:16:02.127Z,10.85
2023-05-19T01:21:31.872Z,10.75
2023-05-19T01:26:53.767Z,10.00
2023-05-19T01:32:01.257Z,9.72
2023-05-19T01:37:06.336Z,9.56
2023-05-19T01:42:10.272Z,8.71
2023-05-19T01:47:15.336Z,10.70
2023-05-19T01:52:18.954Z,11.01
2023-05-19T01:57:31.587Z,10.26
2023-05-19T02:02:51.584Z,10.81
2023-05-19T02:08:03.614Z,10.37
2023-05-19T02:13:10.177Z,10.91
2023-05-19T02:18:18.074Z,10.61
2023-05-19T02:23:21.108Z,10.16
2023-05-19T02:28:27.735Z,10.77
2023-05-19T02:33:34.436Z,10.84
2023-05-19T02:38:51.646Z,7.90
2023-05-19T02:43:54.498Z,10.62
2023-05-19T02:48:58.930Z,10.05
2023-05-19T02:54:04.702Z,9.44
2023-05-19T02:59:07.696Z,10.21
2023-05-19T03:04:13.964Z,10.22
2023-05-19T03:09:20.540Z,10.20
2023-05-19T03:14:25.413Z,10.18
2023-05-19T03:19:38.665Z,10.35
2023-05-19T03:24:51.679Z,8.77
2023-05-19T03:29:55.094Z,9.88
2023-05-19T03:35:02.240Z,8.42
2023-05-19T03:40:10.761Z,10.21
2023-05-19T03:45:17.042Z,9.14
2023-05-19T03:50:31.347Z,7.79
2023-05-19T03:55:49.747Z,10.22
2023-05-19T04:00:52.495Z,10.26
2023-05-19T04:05:56.795Z,10.10
2023-05-19T04:10:59.641Z,10.18
2023-05-19T04:16:04.121Z,10.28
2023-05-19T04:21:08.604Z,10.35
2023-05-19T04:26:12.201Z,9.95
2023-05-19T04:31:15.632Z,10.57
2023-05-19T04:36:26.014Z,9.08
2023-05-19T04:41:29.787Z,10.53
2023-05-19T04:46:36.792Z,10.51
2023-05-19T04:51:42.632Z,9.47
2023-05-19T04:56:46.225Z,10.61
2023-05-19T05:01:49.120Z,10.83
2023-05-19T05:06:54.407Z,10.91
2023-05-19T05:11:59.958Z,11.10
2023-05-19T05:17:17.172Z,11.15
2023-05-19T05:22:24.029Z,11.10
2023-05-19T05:27:27.069Z,11.45
2023-05-19T05:32:35.083Z,11.55
2023-05-19T05:37:57.296Z,10.48
2023-05-19T05:43:00.697Z,11.44
2023-05-19T05:48:08.476Z,11.89
2023-05-19T05:53:18.694Z,12.15
2023-05-19T05:58:22.154Z,12.23
2023-05-19T06:03:25.139Z,12.24
2023-05-19T06:08:30.356Z,12.50
2023-05-19T06:13:33.940Z,12.49
2023-05-19T06:18:37.081Z,12.66
2023-05-19T06:23:41.166Z,12.77
2023-05-19T06:28:46.370Z,13.04
2023-05-19T06:33:50.015Z,13.09
2023-05-19T06:38:54.087Z,13.28
2023-05-19T06:43:57.064Z,13.46
2023-05-19T06:48:59.869Z,13.62
2023-05-19T06:54:13.035Z,13.50
2023-05-19T06:59:17.766Z,13.90
2023-05-19T07:04:21.824Z,13.95
2023-05-19T07:09:33.501Z,14.15
2023-05-19T07:14:38.773Z,14.34
2023-05-19T07:19:43.157Z,14.58
2023-05-19T07:24:48.106Z,14.66
2023-05-19T07:29:52.838Z,14.80
2023-05-19T07:34:55.451Z,14.86
2023-05-19T07:40:02.286Z,14.83
2023-05-19T07:45:09.093Z,15.11
2023-05-19T07:50:19.485Z,14.83
2023-05-19T07:55:28.376Z,15.24
2023-05-19T08:00:31.239Z,15.06
2023-05-19T08:05:35.555Z,15.49
2023-05-19T08:10:39.670Z,15.76
2023-05-19T08:15:42.684Z,15.61
2023-05-19T08:20:46.277Z,15.39
2023-05-19T08:25:50.343Z,16.15
2023-05-19T08:30:53.224Z,16.10
2023-05-19T08:35:57.975Z,16.32
2023-05-19T08:41:06.246Z,16.37
2023-05-19T08:46:19.440Z,16.37
2023-05-19T08:51:36.315Z,16.44
2023-05-19T08:56:42.118Z,16.35
2023-05-19T09:01:46.216Z,16.62
2023-05-19T09:06:50.265Z,16.47
2023-05-19T09:12:04.447Z,16.83
2023-05-19T09:17:07.603Z,16.90
2023-05-19T09:22:10.907Z,16.95
2023-05-19T09:27:22.021Z,17.12
2023-05-19T09:32:28.614Z,17.18
2023-05-19T09:37:32.134Z,17.16
2023-05-19T09:42:39.153Z,17.13
2023-05-19T09:47:42.725Z,16.99
2023-05-19T09:52:45.767Z,17.58
2023-05-19T09:57:51.651Z,17.29
2023-05-19T10:02:54.936Z,17.56
2023-05-19T10:07:58.830Z,17.42
2023-05-19T10:13:04.114Z,17.77
2023-05-19T10:18:10.113Z,18.18
2023-05-19T10:23:12.876Z,17.95
2023-05-19T10:28:23.556Z,17.99
2023-05-19T10:33:43.076Z,17.88
2023-05-19T10:38:54.254Z,17.98
2023-05-19T10:44:08.695Z,17.97
2023-05-19T10:49:11.495Z,17.97
2023-05-19T10:54:16.951Z,18.07
2023-05-19T10:59:39.356Z,17.75
2023-05-19T11:04:51.801Z,17.72
2023-05-19T11:09:55.340Z,17.75
2023-05-19T11:15:04.747Z,18.35
2023-05-19T11:20:21.432Z,18.61
2023-05-19T11:25:42.431Z,18.81
2023-05-19T11:30:50.240Z,18.95
2023-05-19T11:35:54.662Z,19.14
2023-05-19T11:40:58.037Z,19.28
2023-05-19T11:46:02.298Z,19.44
2023-05-19T11:51:13.231Z,19.55
2023-05-19T11:56:17.520Z,19.62
2023-05-19T12:01:26.487Z,19.81
2023-05-19T12:06:29.576Z,20.02
2023-05-19T12:11:35.709Z,20.05
2023-05-19T12:16:39.808Z,20.67
2023-05-19T12:21:45.490Z,20.73
2023-05-19T12:26:50.251Z,20.89
2023-05-19T12:31:54.342Z,21.03
2023-05-19T12:36:57.523Z,21.11
2023-05-19T12:42:03.969Z,21.31
2023-05-19T12:47:08.985Z,21.38
2023-05-19T12:52:15.043Z,21.57
2023-05-19T12:57:17.965Z,21.58
2023-05-19T13:02:31.654Z,21.77
2023-05-19T13:07:37.175Z,21.72
2023-05-19T13:12:39.962Z,22.10
2023-05-19T13:17:46.320Z,22.24
2023-05-19T13:22:50.822Z,21.61
2023-05-19T13:27:54.512Z,22.47
2023-05-19T13:32:59.473Z,22.95
2023-05-19T13:38:04.253Z,23.05
2023-05-19T13:43:07.787Z,23.69
2023-05-19T13:48:16.488Z,23.79
2023-05-19T13:53:42.870Z,23.31
2023-05-19T13:59:01.026Z,25.01
2023-05-19T14:04:07.766Z,25.40
2023-05-19T14:09:11.099Z,25.51
2023-05-19T14:14:13.739Z,25.93
2023-05-19T14:19:18.474Z,25.98
2023-05-19T14:24:21.389Z,26.16
2023-05-19T14:29:24.100Z,25.50
2023-05-19T14:34:28.096Z,24.80
2023-05-19T14:39:32.677Z,24.33
2023-05-19T14:44:37.415Z,23.92
2023-05-19T14:49:41.510Z,23.37
2023-05-19T14:54:44.198Z,22.92
2023-05-19T14:59:46.894Z,22.49
2023-05-19T15:04:50.912Z,22.35
2023-05-19T15:09:53.847Z,22.06
2023-05-19T15:14:56.996Z,22.11
2023-05-19T15:20:01.404Z,21.84
2023-05-19T15:25:04.271Z,21.48
2023-05-19T15:30:07.995Z,21.48
2023-05-19T15:35:12.098Z,21.42
2023-05-19T15:40:15.256Z,21.18
2023-05-19T15:45:18.705Z,21.03
2023-05-19T15:50:22.755Z,21.00
2023-05-19T15:55:25.396Z,20.98
2023-05-19T16:00:28.447Z,20.84
2023-05-19T16:05:34.347Z,20.76
2023-05-19T16:10:37.065Z,20.64
2023-05-19T16:15:40.642Z,20.22
2023-05-19T16:20:47.152Z,20.45
2023-05-19T16:25:50.043Z,20.48
2023-05-19T16:30:52.714Z,20.39
2023-05-19T16:35:59.891Z,20.30
2023-05-19T16:41:07.298Z,20.14
2023-05-19T16:46:12.148Z,20.10
2023-05-19T16:51:16.559Z,19.95
2023-05-19T16:56:19.450Z,20.01
2023-05-19T17:01:22.650Z,19.81
2023-05-19T17:06:41.364Z,19.81
2023-05-19T17:11:45.879Z,19.79
2023-05-19T17:16:50.841Z,18.64
2023-05-19T17:21:55.588Z,19.69
2023-05-19T17:26:58.342Z,19.41
2023-05-19T17:32:02.051Z,19.28
2023-05-19T17:43:31.986Z,18.44
2023-05-19T17:48:55.770Z,18.85
2023-05-19T18:16:04.398Z,16.57
2023-05-19T18:21:35.308Z,18.89
2023-05-19T18:26:41.656Z,17.83
2023-05-19T18:31:44.500Z,17.72
2023-05-19T18:36:48.780Z,18.52
2023-05-19T18:41:51.685Z,18.60
2023-05-19T18:46:54.863Z,17.93
2023-05-19T18:51:59.064Z,18.37
2023-05-19T18:57:03.222Z,18.29
2023-05-19T19:02:06.438Z,18.25
2023-05-19T19:07:10.571Z,17.92
2023-05-19T19:12:13.376Z,17.70
2023-05-19T19:17:16.205Z,17.91
2023-05-19T19:22:24.639Z,17.82
2023-05-19T19:27:30.894Z,17.59
2023-05-19T19:32:33.653Z,17.69
2023-05-19T19:37:37.796Z,17.66
2023-05-19T19:42:44.128Z,17.39
2023-05-19T19:47:46.924Z,17.29
2023-05-19T19:52:51.123Z,17.42
2023-05-19T19:57:55.239Z,17.40
2023-05-19T20:03:04.506Z,17.33
2023-05-19T20:08:09.889Z,16.75
2023-05-19T20:13:12.567Z,16.96
2023-05-19T20:18:16.350Z,16.75
2023-05-19T20:23:20.358Z,16.66
2023-05-19T20:28:23.295Z,16.63
2023-05-19T20:33:27.161Z,16.68
2023-05-19T20:38:32.089Z,16.71
2023-05-19T20:43:36.088Z,16.65
2023-05-19T20:48:38.932Z,16.44
2023-05-19T20:53:43.201Z,16.60
2023-05-19T20:58:45.938Z,16.54
2023-05-19T21:03:48.806Z,16.57
2023-05-19T21:08:53.009Z,16.47
2023-05-19T21:13:56.153Z,16.08
2023-05-19T21:18:59.287Z,16.39
2023-05-19T21:24:03.555Z,15.93
2023-05-19T21:29:08.193Z,16.22
2023-05-19T21:34:11.413Z,16.19
2023-05-19T21:39:16.481Z,15.93
2023-05-19T21:44:26.765Z,15.79
2023-05-19T21:49:29.437Z,15.92
2023-05-19T21:54:35.125Z,15.89
2023-05-19T21:59:41.614Z,15.82
2023-05-19T22:04:46.824Z,16.01
2023-05-19T22:09:53.421Z,15.95
2023-05-19T22:14:56.118Z,15.87
2023-05-19T22:19:59.239Z,15.80
2023-05-19T22:25:04.708Z,15.26
2023-05-19T22:30:12.969Z,15.73
2023-05-19T22:35:15.684Z,15.45
2023-05-19T22:40:20.562Z,15.69
2023-05-19T22:45:23.572Z,15.52
2023-05-19T22:50:26.297Z,14.89
2023-05-19T22:55:30.395Z,15.50
2023-05-19T23:00:33.548Z,15.35
2023-05-19T23:05:42.676Z,15.43
2023-05-19T23:10:46.930Z,15.34
2023-05-19T23:15:49.776Z,14.27
2023-05-19T23:20:52.412Z,14.25
2023-05-19T23:25:56.601Z,15.27
2023-05-19T23:30:59.330Z,15.13
2023-05-19T23:36:07.377Z,14.36
2023-05-19T23:41:11.434Z,13.48
2023-05-19T23:46:14.224Z,14.72
2023-05-19T23:51:17.395Z,14.73
2023-05-19T23:56:21.645Z,14.76
